createdAt,value
2018-11-22T12:18:06.044Z,35.00
2018-11-22T12:20:33.723Z,35.15
2018-11-22T12:23:01.474Z,35.55
2018-11-22T12:25:30.060Z,32.90
2018-11-22T12:27:59.233Z,35.00
2018-11-22T12:30:28.341Z,37.03
2018-11-22T12:32:58.183Z,35.10
2018-11-22T12:35:31.786Z,36.40
2018-11-22T12:38:05.385Z,36.23
2018-11-22T12:40:34.244Z,36.70
2018-11-22T12:43:02.770Z,35.70
2018-11-22T12:45:31.699Z,34.63
2018-11-22T12:47:59.475Z,35.00
2018-11-22T12:50:27.216Z,33.93
2018-11-22T12:52:55.013Z,37.35
2018-11-22T12:55:22.728Z,34.90
2018-11-22T12:57:50.440Z,37.28
2018-11-22T13:00:18.396Z,34.60
2018-11-22T13:02:46.151Z,35.97
2018-11-22T13:05:15.316Z,37.63
2018-11-22T13:07:43.025Z,34.37
2018-11-22T13:10:12.531Z,35.33
2018-11-22T13:12:41.127Z,39.40
2018-11-22T13:15:11.353Z,35.30
2018-11-22T13:17:39.204Z,36.20
2018-11-22T13:20:09.511Z,33.83
2018-11-22T13:22:37.522Z,37.70
2018-11-22T13:25:08.148Z,35.00
2018-11-22T13:27:35.842Z,36.53
2018-11-22T13:30:07.319Z,37.27
2018-11-22T13:32:35.010Z,37.27
2018-11-22T13:35:02.773Z,36.00
2018-11-22T13:37:31.064Z,34.63
2018-11-22T13:39:58.842Z,33.97
2018-11-22T13:42:26.522Z,34.43
2018-11-22T13:44:54.284Z,36.23
2018-11-22T13:47:22.004Z,36.40
2018-11-22T13:49:49.747Z,36.47
2018-11-22T13:52:17.440Z,32.97
2018-11-22T13:54:45.282Z,34.73
2018-11-22T13:57:13.009Z,37.00
2018-11-22T13:59:41.371Z,36.20
2018-11-22T14:02:09.185Z,38.40
2018-11-22T14:04:36.894Z,33.97
2018-11-22T14:07:04.846Z,38.23
2018-11-22T14:09:32.531Z,34.30
2018-11-22T14:12:00.235Z,33.33
2018-11-22T14:14:28.861Z,32.60
2018-11-22T14:16:56.611Z,34.30
2018-11-22T14:19:24.342Z,36.55
2018-11-22T14:21:52.041Z,37.13
2018-11-22T14:24:19.800Z,37.13
2018-11-22T14:26:47.464Z,35.37
2018-11-22T14:29:15.119Z,34.67
2018-11-22T14:31:42.929Z,33.53
2018-11-22T14:34:11.353Z,35.80
2018-11-22T14:36:39.064Z,37.27
2018-11-22T14:39:07.137Z,35.83
2018-11-22T14:41:34.939Z,33.83
2018-11-22T14:44:02.699Z,34.83
2018-11-22T14:46:30.454Z,34.80
2018-11-22T14:49:02.448Z,37.03
2018-11-22T14:51:38.188Z,34.57
2018-11-22T14:54:06.186Z,33.87
2018-11-22T14:56:34.533Z,34.47
2018-11-22T14:59:02.249Z,34.57
2018-11-22T15:01:29.969Z,33.10
2018-11-22T15:03:57.740Z,36.25
2018-11-22T15:06:25.416Z,34.03
2018-11-22T15:08:53.125Z,35.30
2018-11-22T15:11:20.844Z,39.90
2018-11-22T15:13:48.504Z,38.00
2018-11-22T15:16:16.193Z,34.57
2018-11-22T15:18:43.914Z,36.83
2018-11-22T15:21:11.667Z,34.27
2018-11-22T15:23:39.368Z,37.70
2018-11-22T15:26:07.958Z,36.17
2018-11-22T15:28:35.758Z,38.23
2018-11-22T15:31:04.535Z,37.10
2018-11-22T15:33:32.285Z,36.42
2018-11-22T15:35:59.992Z,39.63
2018-11-22T15:38:27.654Z,38.95
2018-11-22T15:40:55.403Z,37.80
2018-11-22T15:43:23.043Z,39.60
2018-11-22T15:45:50.795Z,38.47
2018-11-22T15:48:18.460Z,38.70
2018-11-22T15:50:47.160Z,36.30
2018-11-22T15:53:15.721Z,39.20
2018-11-22T15:55:43.443Z,41.00
2018-11-22T15:58:11.158Z,41.43
2018-11-22T16:00:39.572Z,40.17
2018-11-22T16:03:08.029Z,38.27
2018-11-22T16:05:35.701Z,39.00
2018-11-22T16:08:03.492Z,41.05
2018-11-22T16:10:32.958Z,41.25
2018-11-22T16:13:06.014Z,40.93
2018-11-22T16:15:39.613Z,39.60
2018-11-22T16:18:07.648Z,40.00
2018-11-22T16:20:36.286Z,41.30
2018-11-22T16:23:04.547Z,42.90
2018-11-22T16:25:33.444Z,39.77
2018-11-22T16:28:02.841Z,41.63
2018-11-22T16:30:31.555Z,41.10
2018-11-22T16:32:59.330Z,43.00
2018-11-22T16:35:33.277Z,42.50
2018-11-22T16:37:56.984Z,41.07
2018-11-22T16:40:26.186Z,39.20
2018-11-22T16:42:54.964Z,41.17
2018-11-22T16:45:24.130Z,39.40
2018-11-22T16:47:54.351Z,44.60
2018-11-22T16:50:24.493Z,39.53
2018-11-22T16:52:53.010Z,38.27
2018-11-22T16:55:22.856Z,40.10
2018-11-22T16:57:55.299Z,44.30
2018-11-22T17:00:32.293Z,41.67
2018-11-22T17:03:03.275Z,43.80
2018-11-22T17:05:31.180Z,41.70
2018-11-22T17:07:59.664Z,43.50
2018-11-22T17:10:28.744Z,42.10
2018-11-22T17:12:58.304Z,41.47
2018-11-22T17:15:27.542Z,41.23
2018-11-22T17:17:57.000Z,41.93
2018-11-22T17:20:26.344Z,38.30
2018-11-22T17:22:54.880Z,41.20
2018-11-22T17:25:25.820Z,38.70
2018-11-22T17:27:56.139Z,41.73
2018-11-22T17:30:27.689Z,37.83
2018-11-22T17:32:55.512Z,40.13
2018-11-22T17:35:24.428Z,41.70
2018-11-22T17:37:53.947Z,39.23
2018-11-22T17:40:24.361Z,40.10
2018-11-22T17:42:52.932Z,41.03
2018-11-22T17:45:26.844Z,42.37
2018-11-22T17:47:58.238Z,37.07
2018-11-22T17:50:28.395Z,42.20
2018-11-22T17:52:59.050Z,39.23
2018-11-22T17:55:28.554Z,38.40
2018-11-22T17:57:56.292Z,39.70
2018-11-22T18:00:26.387Z,41.23
2018-11-22T18:02:55.481Z,41.27
2018-11-22T18:05:27.245Z,38.63
2018-11-22T18:07:52.081Z,38.63
2018-11-22T18:10:23.233Z,42.27
2018-11-22T18:12:52.556Z,40.80
2018-11-22T18:15:21.964Z,44.00
2018-11-22T18:17:50.441Z,48.30
2018-11-22T18:20:20.619Z,40.80
2018-11-22T18:22:49.369Z,39.73
2018-11-22T18:25:21.475Z,39.30
2018-11-22T18:27:49.263Z,37.70
2018-11-22T18:30:23.678Z,41.27
2018-11-22T18:32:53.886Z,47.33
2018-11-22T18:35:21.776Z,43.17
2018-11-22T18:37:49.530Z,41.80
2018-11-22T18:40:20.184Z,40.87
2018-11-22T18:42:48.923Z,41.37
2018-11-22T18:45:22.131Z,42.10
2018-11-22T18:47:55.618Z,40.20
2018-11-22T18:50:24.608Z,43.43
2018-11-22T18:52:54.252Z,39.00
2018-11-22T18:55:22.801Z,41.23
2018-11-22T18:57:50.875Z,37.63
2018-11-22T19:00:23.881Z,40.77
2018-11-22T19:02:53.257Z,41.87
2018-11-22T19:05:21.060Z,42.07
2018-11-22T19:07:49.547Z,40.17
2018-11-22T19:10:21.124Z,42.00
2018-11-22T19:12:49.799Z,37.63
2018-11-22T19:15:19.108Z,41.40
2018-11-22T19:17:47.114Z,38.17
2018-11-22T19:20:20.965Z,40.90
2018-11-22T19:22:49.969Z,44.80
2018-11-22T19:25:18.392Z,43.30
2018-11-22T19:27:46.636Z,42.57
2018-11-22T19:30:18.555Z,41.77
2018-11-22T19:32:47.393Z,40.27
2018-11-22T19:35:18.871Z,39.00
2018-11-22T19:37:48.111Z,39.60
2018-11-22T19:40:18.195Z,40.20
2018-11-22T19:42:47.351Z,38.33
2018-11-22T19:45:16.473Z,41.20
2018-11-22T19:47:44.239Z,39.80
2018-11-22T19:50:15.143Z,38.93
2018-11-22T19:52:43.789Z,37.67
2018-11-22T19:55:14.117Z,36.70
2018-11-22T19:57:42.964Z,39.60
2018-11-22T20:00:12.359Z,40.17
2018-11-22T20:02:41.069Z,38.47
2018-11-22T20:05:10.988Z,38.77
2018-11-22T20:07:39.153Z,37.30
2018-11-22T20:10:11.630Z,42.17
2018-11-22T20:12:39.473Z,38.40
2018-11-22T20:15:07.188Z,40.43
2018-11-22T20:17:35.034Z,36.75
2018-11-22T20:20:03.258Z,36.85
2018-11-22T20:22:31.079Z,39.73
2018-11-22T20:24:58.841Z,39.77
2018-11-22T20:27:27.602Z,39.37
2018-11-22T20:29:55.519Z,39.20
2018-11-22T20:32:23.362Z,38.50
2018-11-22T20:34:51.099Z,39.50
2018-11-22T20:37:18.954Z,38.53
2018-11-22T20:39:46.685Z,38.35
2018-11-22T20:42:14.394Z,39.48
2018-11-22T20:44:42.191Z,35.70
2018-11-22T20:47:10.626Z,37.67
2018-11-22T20:49:38.311Z,37.93
2018-11-22T20:52:06.016Z,38.55
2018-11-22T20:54:33.682Z,36.48
2018-11-22T20:57:01.416Z,36.97
2018-11-22T20:59:29.159Z,41.23
2018-11-22T21:01:57.748Z,36.00
2018-11-22T21:04:25.457Z,38.60
2018-11-22T21:06:53.330Z,38.08
2018-11-22T21:09:21.139Z,36.05
2018-11-22T21:11:49.517Z,39.18
2018-11-22T21:14:17.198Z,38.70
2018-11-22T21:16:47.049Z,37.90
2018-11-22T21:19:14.884Z,41.20
2018-11-22T21:21:43.506Z,38.33
2018-11-22T21:24:11.217Z,39.83
2018-11-22T21:26:40.748Z,42.23
2018-11-22T21:29:10.034Z,39.00
2018-11-22T21:31:37.841Z,39.87
2018-11-22T21:34:05.668Z,42.03
2018-11-22T21:36:34.362Z,41.00
2018-11-22T21:39:03.292Z,39.10
2018-11-22T21:41:31.024Z,40.10
2018-11-22T21:43:58.784Z,41.73
2018-11-22T21:46:30.551Z,38.17
2018-11-22T21:48:59.229Z,39.57
2018-11-22T21:51:26.940Z,39.20
2018-11-22T21:53:55.304Z,37.33
2018-11-22T21:56:24.833Z,38.03
2018-11-22T21:58:52.535Z,38.17
2018-11-22T22:01:20.252Z,37.60
2018-11-22T22:03:48.608Z,39.45
2018-11-22T22:06:17.928Z,41.70
2018-11-22T22:08:46.901Z,37.70
2018-11-22T22:11:15.412Z,41.63
2018-11-22T22:13:43.172Z,40.40
2018-11-22T22:16:11.793Z,38.57
2018-11-22T22:18:40.145Z,40.30
2018-11-22T22:21:09.483Z,39.57
2018-11-22T22:23:38.838Z,39.30
2018-11-22T22:26:06.493Z,38.30
2018-11-22T22:28:34.178Z,39.08
2018-11-22T22:31:01.857Z,36.77
2018-11-22T22:33:30.160Z,41.33
2018-11-22T22:35:57.872Z,39.00
2018-11-22T22:38:25.591Z,40.70
2018-11-22T22:40:53.455Z,41.50
2018-11-22T22:43:21.203Z,39.78
2018-11-22T22:45:48.961Z,38.57
2018-11-22T22:48:16.715Z,41.63
2018-11-22T22:50:44.400Z,42.70
2018-11-22T22:53:12.097Z,40.33
2018-11-22T22:55:39.809Z,41.20
2018-11-22T22:58:08.094Z,37.78
2018-11-22T23:00:45.393Z,38.47
2018-11-22T23:03:13.071Z,37.53
2018-11-22T23:05:40.767Z,41.17
2018-11-22T23:08:08.531Z,38.70
2018-11-22T23:10:36.155Z,39.48
2018-11-22T23:13:05.147Z,40.10
2018-11-22T23:15:32.966Z,40.67
2018-11-22T23:18:00.680Z,41.70
2018-11-22T23:20:29.709Z,38.35
2018-11-22T23:22:57.483Z,39.40
2018-11-22T23:25:26.745Z,41.30
2018-11-22T23:27:54.477Z,41.77
2018-11-22T23:30:26.850Z,41.20
2018-11-22T23:32:56.478Z,41.70
2018-11-22T23:35:23.532Z,38.17
2018-11-22T23:37:52.135Z,37.63
2018-11-22T23:40:21.451Z,39.30
2018-11-22T23:45:24.943Z,40.37
2018-11-22T23:47:52.647Z,39.57
2018-11-22T23:50:22.723Z,39.60
2018-11-22T23:52:51.724Z,42.47
2018-11-22T23:55:19.596Z,41.20
2018-11-22T23:57:48.110Z,39.33
